createdAt,value
2023-05-10T00:00:01.162Z,0.6806
2023-05-10T00:01:02.181Z,0.6516
2023-05-10T00:02:03.168Z,0.7368
2023-05-10T00:03:04.421Z,0.6637
2023-05-10T00:04:05.425Z,0.6350
2023-05-10T00:05:06.446Z,0.6423
2023-05-10T00:06:07.386Z,0.6998
2023-05-10T00:07:08.986Z,0.7697
2023-05-10T00:08:10.029Z,0.7718
2023-05-10T00:09:11.035Z,0.7671
2023-05-10T00:10:12.037Z,0.8335
2023-05-10T00:11:13.048Z,0.5132
2023-05-10T00:12:14.055Z,0.7611
2023-05-10T00:13:15.093Z,0.8371
2023-05-10T00:14:16.109Z,0.8287
2023-05-10T00:15:17.124Z,0.7430
2023-05-10T00:16:18.121Z,0.6376
2023-05-10T00:17:19.155Z,0.5809
2023-05-10T00:18:20.228Z,0.6946
2023-05-10T00:19:33.025Z,0.6442
2023-05-10T00:20:24.191Z,0.5512
2023-05-10T00:21:25.174Z,0.7059
2023-05-10T00:22:26.115Z,0.6340
2023-05-10T00:23:27.009Z,0.5657
2023-05-10T00:24:27.848Z,0.7167
2023-05-10T00:25:28.743Z,0.6144
2023-05-10T00:26:29.760Z,0.7183
2023-05-10T00:27:30.779Z,0.7687
2023-05-10T00:28:31.792Z,0.8411
2023-05-10T00:29:32.827Z,0.7013
2023-05-10T00:30:33.888Z,0.5828
2023-05-10T00:31:34.915Z,0.7520
2023-05-10T00:32:36.070Z,0.6075
2023-05-10T00:33:37.083Z,0.6212
2023-05-10T00:34:38.118Z,0.6620
2023-05-10T00:35:39.213Z,0.7699
2023-05-10T00:36:40.121Z,0.6758
2023-05-10T00:37:41.160Z,0.6860
2023-05-10T00:38:42.206Z,0.8894
2023-05-10T00:39:43.162Z,0.5985
2023-05-10T00:40:44.162Z,0.5705
2023-05-10T00:41:45.110Z,0.6946
2023-05-10T00:42:46.188Z,0.5682
2023-05-10T00:43:47.176Z,0.7835
2023-05-10T00:44:48.231Z,0.7997
2023-05-10T00:45:49.242Z,0.9165
2023-05-10T00:46:50.240Z,0.5611
2023-05-10T00:47:51.268Z,0.5487
2023-05-10T00:48:52.258Z,0.7027
2023-05-10T00:49:53.190Z,0.7382
2023-05-10T00:50:54.292Z,0.4764
2023-05-10T00:51:55.283Z,0.6899
2023-05-10T00:52:56.314Z,0.8324
2023-05-10T00:53:57.289Z,0.9986
2023-05-10T00:54:58.359Z,0.7004
2023-05-10T00:55:59.364Z,0.8429
2023-05-10T00:57:00.447Z,0.9944
2023-05-10T00:58:01.338Z,0.7137
2023-05-10T00:59:02.413Z,0.6133
2023-05-10T01:00:03.346Z,0.5847
2023-05-10T01:01:04.412Z,0.5927
2023-05-10T01:02:05.446Z,0.7184
2023-05-10T01:03:06.505Z,0.8609
2023-05-10T01:04:07.396Z,0.6348
2023-05-10T01:05:08.278Z,0.9219
2023-05-10T01:06:09.018Z,0.7549
2023-05-10T01:07:09.889Z,0.7353
2023-05-10T01:08:10.760Z,0.7841
2023-05-10T01:09:11.632Z,0.7942
2023-05-10T01:10:12.487Z,0.7340
2023-05-10T01:11:13.336Z,0.7324
2023-05-10T01:12:14.204Z,0.7269
2023-05-10T01:13:15.035Z,0.8252
2023-05-10T01:14:16.003Z,0.6968
2023-05-10T01:15:17.015Z,0.7439
2023-05-10T01:16:18.059Z,0.6871
2023-05-10T01:17:19.134Z,0.6699
2023-05-10T01:18:20.041Z,0.6656
2023-05-10T01:19:21.169Z,0.7666
2023-05-10T01:20:23.080Z,0.6736
2023-05-10T01:21:24.040Z,0.7651
2023-05-10T01:22:25.062Z,0.7750
2023-05-10T01:23:26.122Z,0.7443
2023-05-10T01:24:27.123Z,0.7665
2023-05-10T01:25:28.141Z,0.6805
2023-05-10T01:26:53.439Z,0.6018
2023-05-10T01:27:31.645Z,0.5754
2023-05-10T01:28:32.552Z,0.7442
2023-05-10T01:29:33.639Z,0.9772
2023-05-10T01:30:34.594Z,1.0749
2023-05-10T01:31:35.638Z,0.7492
2023-05-10T01:32:36.604Z,0.8601
2023-05-10T01:33:37.605Z,0.8529
2023-05-10T01:34:38.606Z,0.9076
2023-05-10T01:35:39.670Z,0.8279
2023-05-10T01:36:40.638Z,0.9595
2023-05-10T01:37:41.636Z,0.8470
2023-05-10T01:38:42.589Z,0.7784
2023-05-10T01:39:43.623Z,0.8756
2023-05-10T01:40:44.668Z,0.8003
2023-05-10T01:41:45.488Z,0.9016
2023-05-10T01:42:47.390Z,0.8736
2023-05-10T01:43:48.167Z,1.0162
2023-05-10T01:44:49.052Z,0.9680
2023-05-10T01:45:49.813Z,1.0241
2023-05-10T01:46:50.736Z,0.6865
2023-05-10T01:47:51.605Z,0.8692
2023-05-10T01:48:52.500Z,0.8381
2023-05-10T01:49:53.319Z,1.0289
2023-05-10T01:50:54.272Z,0.9050
2023-05-10T01:51:55.209Z,0.8240
2023-05-10T01:52:56.078Z,1.0749
2023-05-10T01:53:56.964Z,0.6616
2023-05-10T01:54:57.828Z,0.8791
2023-05-10T01:55:58.638Z,0.6765
2023-05-10T01:56:59.473Z,1.0012
2023-05-10T01:58:00.321Z,0.9649
2023-05-10T01:59:01.195Z,0.8643
2023-05-10T02:00:02.022Z,0.7380
2023-05-10T02:01:02.916Z,0.8473
2023-05-10T02:02:03.753Z,0.8185
2023-05-10T02:03:04.720Z,0.8503
2023-05-10T02:04:06.563Z,1.0057
2023-05-10T02:05:07.454Z,0.8677
2023-05-10T02:06:08.304Z,0.7915
2023-05-10T02:07:09.255Z,0.9211
2023-05-10T02:08:09.996Z,1.0351
2023-05-10T02:09:10.850Z,0.9608
2023-05-10T02:10:11.724Z,0.9480
2023-05-10T02:11:12.559Z,0.9675
2023-05-10T02:12:13.373Z,0.8654
2023-05-10T02:13:14.333Z,0.8997
2023-05-10T02:14:15.143Z,0.9701
2023-05-10T02:15:16.070Z,0.9165
2023-05-10T02:16:16.987Z,0.7506
2023-05-10T02:17:19.004Z,0.9201
2023-05-10T02:18:20.366Z,0.7907
2023-05-10T02:19:21.188Z,0.8721
2023-05-10T02:20:22.095Z,0.8618
2023-05-10T02:21:22.908Z,0.8624
2023-05-10T02:22:23.787Z,0.6191
2023-05-10T02:23:24.616Z,0.9471
2023-05-10T02:24:25.468Z,0.9913
2023-05-10T02:25:26.334Z,0.8213
2023-05-10T02:26:27.341Z,0.7822
2023-05-10T02:27:28.099Z,0.7405
2023-05-10T02:28:29.000Z,0.7881
2023-05-10T02:29:29.862Z,0.7294
2023-05-10T02:30:30.732Z,0.6599
2023-05-10T02:31:31.585Z,0.8489
2023-05-10T02:32:32.484Z,0.6929
2023-05-10T02:33:33.265Z,1.0553
2023-05-10T02:34:34.244Z,0.8822
2023-05-10T02:35:36.229Z,0.7938
2023-05-10T02:36:37.134Z,0.8061
2023-05-10T02:37:37.943Z,0.9524
2023-05-10T02:38:38.777Z,1.0529
2023-05-10T02:39:39.600Z,0.9321
2023-05-10T02:40:40.462Z,0.8287
2023-05-10T02:41:41.258Z,0.9549
2023-05-10T02:42:42.186Z,0.8036
2023-05-10T02:43:43.019Z,0.9108
2023-05-10T02:44:43.895Z,0.6937
2023-05-10T02:45:44.737Z,0.7765
2023-05-10T02:46:45.609Z,0.7984
2023-05-10T02:47:46.436Z,0.8516
2023-05-10T02:48:47.280Z,0.8717
2023-05-10T02:49:48.162Z,0.9037
2023-05-10T02:50:48.998Z,0.9276
2023-05-10T02:51:49.849Z,0.9008
2023-05-10T02:52:50.656Z,1.1145
2023-05-10T02:53:51.541Z,0.9135
2023-05-10T02:54:52.369Z,1.1066
2023-05-10T02:55:53.266Z,1.1734
2023-05-10T02:56:54.227Z,1.1512
2023-05-10T02:57:55.033Z,1.0891
2023-05-10T02:58:55.976Z,1.0929
2023-05-10T02:59:56.790Z,1.2397
2023-05-10T03:00:57.637Z,1.1798
2023-05-10T03:01:58.561Z,1.0651
2023-05-10T03:02:59.479Z,1.4055
2023-05-10T03:04:00.452Z,1.2900
2023-05-10T03:05:01.528Z,1.1398
2023-05-10T03:06:02.514Z,1.4429
2023-05-10T03:07:03.557Z,1.5169
2023-05-10T03:08:04.598Z,1.2643
2023-05-10T03:09:05.666Z,1.2430
2023-05-10T03:10:06.699Z,1.1529
2023-05-10T03:11:07.762Z,1.3903
2023-05-10T03:12:08.696Z,1.2571
2023-05-10T03:13:09.738Z,1.4192
2023-05-10T03:14:11.651Z,1.1158
2023-05-10T03:15:12.691Z,1.0105
2023-05-10T03:16:13.819Z,1.1355
2023-05-10T03:17:14.870Z,1.0783
2023-05-10T03:18:15.947Z,0.9911
2023-05-10T03:19:16.944Z,1.1483
2023-05-10T03:20:18.217Z,1.4353
2023-05-10T03:21:19.367Z,1.2200
2023-05-10T03:22:20.480Z,1.2545
2023-05-10T03:23:21.463Z,1.1692
2023-05-10T03:24:22.356Z,1.3661
2023-05-10T03:25:23.452Z,1.4098
2023-05-10T03:26:24.283Z,1.7532
2023-05-10T03:27:25.046Z,1.4611
2023-05-10T03:28:26.405Z,1.4464
2023-05-10T03:29:27.289Z,1.4004
2023-05-10T03:30:28.244Z,1.4643
2023-05-10T03:31:29.146Z,1.6530
2023-05-10T03:32:30.003Z,1.5935
2023-05-10T03:33:30.844Z,1.6999
2023-05-10T03:34:31.704Z,1.7628
2023-05-10T03:35:32.500Z,1.6666
2023-05-10T03:36:33.421Z,1.7916
2023-05-10T03:37:34.474Z,1.4308
2023-05-10T03:38:35.352Z,1.4634
2023-05-10T03:39:36.164Z,1.5070
2023-05-10T03:40:37.033Z,1.5381
2023-05-10T03:41:37.877Z,1.5239
2023-05-10T03:42:38.738Z,1.6957
2023-05-10T03:43:39.517Z,1.6237
2023-05-10T03:44:40.383Z,1.5126
2023-05-10T03:45:41.204Z,1.7059
2023-05-10T03:46:42.157Z,1.8795
2023-05-10T03:47:42.977Z,1.8176
2023-05-10T03:48:43.790Z,1.5442
2023-05-10T03:49:44.585Z,1.6796
2023-05-10T03:50:45.586Z,1.7469
2023-05-10T03:51:46.520Z,1.9131
2023-05-10T03:52:47.492Z,1.6952
2023-05-10T03:53:48.431Z,2.0597
2023-05-10T03:54:49.437Z,1.9815
2023-05-10T03:55:50.480Z,1.9898
2023-05-10T03:56:51.565Z,2.0033
2023-05-10T03:57:52.483Z,1.8098
2023-05-10T03:58:53.459Z,1.9079
2023-05-10T03:59:54.498Z,1.9941
2023-05-10T04:00:55.495Z,1.7642
2023-05-10T04:01:56.462Z,1.9598
2023-05-10T04:02:57.579Z,2.3452
2023-05-10T04:03:58.589Z,1.8695
2023-05-10T04:04:59.640Z,2.0041
2023-05-10T04:06:00.585Z,2.0037
2023-05-10T04:07:01.635Z,2.0756
2023-05-10T04:08:02.575Z,2.0632
2023-05-10T04:09:03.631Z,2.0185
2023-05-10T04:10:04.534Z,1.8026
2023-05-10T04:11:05.479Z,2.1733
2023-05-10T04:12:07.961Z,2.2979
2023-05-10T04:13:07.761Z,2.0763
2023-05-10T04:14:08.664Z,2.0239
2023-05-10T04:15:09.506Z,1.9105
2023-05-10T04:16:10.285Z,2.2126
2023-05-10T04:17:11.330Z,2.1308
2023-05-10T04:18:12.441Z,1.9689
2023-05-10T04:19:13.401Z,1.6776
2023-05-10T04:20:14.501Z,2.2490
2023-05-10T04:21:15.565Z,1.9562
2023-05-10T04:22:16.566Z,1.7603
2023-05-10T04:23:17.780Z,1.7597
2023-05-10T04:24:18.834Z,1.6535
2023-05-10T04:25:19.878Z,2.0081
2023-05-10T04:26:20.915Z,1.7136
2023-05-10T04:27:21.865Z,1.8354
2023-05-10T04:28:22.913Z,1.7268
2023-05-10T04:29:23.964Z,1.4761
2023-05-10T04:30:24.897Z,1.5805
2023-05-10T04:31:26.019Z,1.8805
2023-05-10T04:32:27.112Z,1.5070
2023-05-10T04:33:28.137Z,1.4695
2023-05-10T04:34:29.149Z,1.8555
2023-05-10T04:35:30.169Z,1.8968
2023-05-10T04:36:31.153Z,1.9879
2023-05-10T04:37:32.213Z,1.3670
2023-05-10T04:38:33.044Z,1.5409
2023-05-10T04:39:33.947Z,1.7895
2023-05-10T04:40:34.854Z,1.7071
2023-05-10T04:41:35.857Z,1.6810
2023-05-10T04:42:36.895Z,1.7038
2023-05-10T04:43:37.875Z,1.7846
2023-05-10T04:44:38.974Z,1.8892
2023-05-10T04:45:39.928Z,1.6777
2023-05-10T04:46:41.114Z,1.3663
2023-05-10T04:47:42.156Z,1.4175
2023-05-10T04:48:43.222Z,1.6034
2023-05-10T04:49:44.309Z,1.6919
2023-05-10T04:50:46.422Z,1.8629
2023-05-10T04:51:47.428Z,1.5014
2023-05-10T04:52:48.476Z,1.5759
2023-05-10T04:54:01.721Z,1.8916
2023-05-10T04:54:49.912Z,1.6033
2023-05-10T04:55:50.924Z,1.6522
2023-05-10T04:56:51.998Z,1.8215
2023-05-10T04:57:52.993Z,1.8054
2023-05-10T04:58:54.052Z,1.9310
2023-05-10T04:59:55.082Z,1.7650
2023-05-10T05:00:56.162Z,1.5530
2023-05-10T05:01:57.274Z,1.5783
2023-05-10T05:02:58.531Z,1.6904
2023-05-10T05:03:59.790Z,1.3721
2023-05-10T05:05:01.934Z,1.6154
2023-05-10T05:06:02.801Z,1.4743
2023-05-10T05:07:03.746Z,1.5710
2023-05-10T05:08:04.644Z,1.4295
2023-05-10T05:09:05.571Z,1.6543
2023-05-10T05:10:06.391Z,1.5385
2023-05-10T05:11:07.445Z,1.5756
2023-05-10T05:12:08.178Z,2.0200
2023-05-10T05:13:09.233Z,1.7568
2023-05-10T05:14:10.220Z,1.7177
2023-05-10T05:15:11.127Z,1.5750
2023-05-10T05:16:12.187Z,1.4696
2023-05-10T05:17:14.030Z,1.5719
2023-05-10T05:18:14.954Z,1.8132
2023-05-10T05:19:15.763Z,1.9281
2023-05-10T05:20:16.976Z,1.8553
2023-05-10T05:21:18.144Z,1.4110
2023-05-10T05:22:19.596Z,1.6012
2023-05-10T05:23:20.656Z,1.4732
2023-05-10T05:24:21.696Z,1.5369
2023-05-10T05:25:22.495Z,1.6410
2023-05-10T05:26:23.477Z,1.6201
2023-05-10T05:27:24.312Z,1.9185
2023-05-10T05:28:25.260Z,1.8002
2023-05-10T05:29:26.079Z,1.7739
2023-05-10T05:30:26.981Z,1.7952
2023-05-10T05:31:27.986Z,1.6216
2023-05-10T05:32:29.083Z,1.6232
2023-05-10T05:33:30.092Z,1.8751
2023-05-10T05:34:31.253Z,1.6026
2023-05-10T05:35:32.260Z,1.4081
2023-05-10T05:45:32.891Z,1.5211
2023-05-10T05:45:32.891Z,1.2566
2023-05-10T05:45:32.891Z,1.5664
2023-05-10T05:46:35.085Z,1.8552
2023-05-10T05:47:36.301Z,1.3572
2023-05-10T05:48:37.305Z,1.4988
2023-05-10T05:49:38.389Z,1.8963
2023-05-10T05:50:39.409Z,2.0189
2023-05-10T05:51:40.413Z,1.9314
2023-05-10T05:52:41.512Z,1.6364
2023-05-10T05:53:42.576Z,1.5756
2023-05-10T05:54:43.649Z,1.6683
2023-05-10T05:55:44.725Z,1.6653
2023-05-10T05:56:45.773Z,1.6796
2023-05-10T06:02:20.821Z,1.6277
2023-05-10T06:02:20.821Z,1.3555
2023-05-10T06:03:39.597Z,1.9995
2023-05-10T06:04:42.795Z,1.7149
2023-05-10T06:05:30.355Z,1.7128
2023-05-10T06:06:31.301Z,1.6748
2023-05-10T06:07:32.293Z,1.6078
2023-05-10T06:10:18.265Z,1.8890
2023-05-10T06:11:22.221Z,1.7114
2023-05-10T06:12:21.083Z,1.5248
2023-05-10T06:13:21.997Z,1.7905
2023-05-10T06:14:22.900Z,2.0166
2023-05-10T06:16:25.552Z,1.8959
2023-05-10T06:17:26.591Z,1.8381
2023-05-10T06:19:52.319Z,1.7271
2023-05-10T06:20:30.614Z,1.4370
2023-05-10T06:21:31.493Z,1.4651
2023-05-10T06:22:32.470Z,1.5793
2023-05-10T06:23:33.260Z,1.9548
2023-05-10T06:24:34.200Z,1.6951
2023-05-10T06:25:35.074Z,1.7099
2023-05-10T06:26:35.919Z,1.5954
2023-05-10T06:27:36.775Z,1.9067
2023-05-10T06:28:37.661Z,1.6781
2023-05-10T06:29:38.544Z,1.8088
2023-05-10T06:30:39.431Z,1.6865
2023-05-10T06:31:40.364Z,1.6839
2023-05-10T06:32:41.177Z,1.8214
2023-05-10T06:33:42.120Z,1.6124
2023-05-10T06:34:42.932Z,1.4967
2023-05-10T06:35:43.885Z,1.6227
2023-05-10T06:36:44.744Z,1.4340
2023-05-10T06:37:45.544Z,1.5798
2023-05-10T06:38:46.463Z,1.8442
2023-05-10T06:39:47.312Z,2.0519
2023-05-10T06:40:48.340Z,1.7036
2023-05-10T06:41:49.529Z,1.8493
2023-05-10T06:42:50.523Z,1.6584
2023-05-10T06:43:51.513Z,2.0897
2023-05-10T06:44:52.614Z,1.5679
2023-05-10T06:45:53.718Z,1.6313
2023-05-10T06:46:54.766Z,1.5937
2023-05-10T06:47:55.859Z,1.6374
2023-05-10T06:48:57.284Z,1.4618
2023-05-10T06:50:00.325Z,1.6448
2023-05-10T06:51:02.908Z,2.0239
2023-05-10T06:52:04.001Z,1.8340
2023-05-10T06:53:05.038Z,1.7490
2023-05-10T06:54:06.044Z,1.5793
2023-05-10T06:55:06.995Z,1.7041
2023-05-10T06:56:07.954Z,1.8806
2023-05-10T06:57:16.004Z,1.9284
2023-05-10T07:00:12.805Z,1.4867
2023-05-10T07:01:13.927Z,1.5531
2023-05-10T07:02:15.410Z,1.5089
2023-05-10T07:03:17.296Z,1.3481
2023-05-10T07:04:18.543Z,1.3025
2023-05-10T07:05:21.233Z,1.4608
2023-05-10T07:06:32.914Z,1.4313
2023-05-10T07:07:23.239Z,1.3449
2023-05-10T07:08:24.486Z,1.3996
2023-05-10T07:09:25.642Z,1.4470
2023-05-10T07:10:26.722Z,1.5788
2023-05-10T07:11:27.941Z,1.4998
2023-05-10T07:12:29.074Z,1.2913
2023-05-10T07:13:30.206Z,1.5725
2023-05-10T07:14:31.361Z,1.5994
2023-05-10T07:15:32.826Z,1.4637
2023-05-10T07:16:34.044Z,1.9328
2023-05-10T07:17:35.110Z,1.5692
2023-05-10T07:18:36.360Z,1.7682
2023-05-10T07:19:37.471Z,1.4901
2023-05-10T07:20:38.581Z,2.4502
2023-05-10T07:21:39.754Z,1.8642
2023-05-10T07:22:40.850Z,1.8344
2023-05-10T07:23:43.681Z,1.5956
2023-05-10T07:24:42.763Z,1.3513
2023-05-10T07:25:43.810Z,1.6336
2023-05-10T07:27:08.189Z,1.6250
2023-05-10T07:27:46.862Z,1.4521
2023-05-10T07:28:47.884Z,1.5280
2023-05-10T07:29:48.949Z,1.5105
2023-05-10T07:30:49.965Z,1.8538
2023-05-10T07:32:00.238Z,2.0979
2023-05-10T07:33:52.236Z,1.6256
2023-05-10T07:34:02.659Z,1.5152
2023-05-10T07:37:16.308Z,1.7066
2023-05-10T07:37:16.308Z,1.6293
2023-05-10T07:40:50.725Z,2.1840
2023-05-10T07:40:50.725Z,1.6629
2023-05-10T07:40:50.725Z,1.8298
2023-05-10T07:41:51.659Z,1.7606
2023-05-10T07:43:57.030Z,2.2380
2023-05-10T07:47:01.213Z,1.9859
2023-05-10T07:47:01.213Z,1.9875
2023-05-10T07:48:03.179Z,1.8349
2023-05-10T07:49:04.365Z,1.9883
2023-05-10T07:50:05.258Z,2.0354
2023-05-10T07:52:27.111Z,1.7536
2023-05-10T07:52:27.111Z,1.8029
2023-05-10T07:53:15.597Z,1.8093
2023-05-10T07:54:16.748Z,1.9532
2023-05-10T07:55:17.906Z,2.0175
2023-05-10T07:56:19.890Z,2.2139
2023-05-10T07:57:21.059Z,2.1908
2023-05-10T07:58:23.472Z,1.8837
2023-05-10T07:59:25.484Z,2.0008
2023-05-10T08:00:26.598Z,1.9881
2023-05-10T08:01:27.777Z,1.9765
2023-05-10T08:02:28.880Z,1.6762
2023-05-10T08:03:31.011Z,1.6803
2023-05-10T08:04:32.179Z,1.8262
2023-05-10T08:05:35.236Z,1.9534
2023-05-10T08:06:33.603Z,2.1062
2023-05-10T08:07:34.720Z,1.7118
2023-05-10T08:08:35.769Z,1.7437
2023-05-10T08:09:36.833Z,1.5226
2023-05-10T08:10:38.020Z,1.9983
2023-05-10T08:11:39.327Z,1.9080
2023-05-10T08:12:40.280Z,1.8659
2023-05-10T08:13:41.339Z,2.1229
2023-05-10T08:14:42.409Z,2.0073
2023-05-10T08:15:43.489Z,2.1804
2023-05-10T08:27:01.758Z,1.8479
2023-05-10T08:27:01.758Z,1.8984
2023-05-10T08:27:01.758Z,1.8355
2023-05-10T08:28:02.720Z,2.1435
2023-05-10T08:29:03.908Z,2.4164
2023-05-10T08:30:04.940Z,2.1477
2023-05-10T08:31:06.228Z,1.6761
2023-05-10T08:32:07.364Z,1.9937
2023-05-10T08:33:08.940Z,1.9972
2023-05-10T08:35:27.660Z,1.8208
2023-05-10T08:35:27.660Z,1.8612
2023-05-10T08:36:28.627Z,1.8714
2023-05-10T08:37:29.709Z,1.8754
2023-05-10T08:38:30.801Z,1.7864
2023-05-10T08:41:32.471Z,1.9181
2023-05-10T08:42:31.150Z,1.9599
2023-05-10T08:43:30.726Z,1.8967
2023-05-10T08:44:32.350Z,2.0977
2023-05-10T08:45:33.541Z,2.1981
2023-05-10T08:48:40.610Z,1.8957
2023-05-10T08:48:40.610Z,1.9444
2023-05-10T08:50:50.739Z,2.1854
2023-05-10T08:50:50.739Z,1.7510
2023-05-10T08:51:52.907Z,2.3194
2023-05-10T08:52:53.858Z,2.1504
2023-05-10T08:53:54.858Z,1.9694
2023-05-10T08:54:55.938Z,1.9040
2023-05-10T08:55:57.854Z,1.9895
2023-05-10T08:56:58.987Z,2.1901
2023-05-10T08:58:00.205Z,2.1083
2023-05-10T08:59:01.087Z,1.8551
2023-05-10T09:00:02.182Z,2.0491
2023-05-10T09:01:03.338Z,1.8560
2023-05-10T09:02:04.384Z,1.8244
2023-05-10T09:03:07.985Z,2.1785
2023-05-10T09:04:07.714Z,2.4205
2023-05-10T09:05:09.448Z,2.1483
2023-05-10T09:06:12.452Z,2.0294
2023-05-10T09:07:15.114Z,2.0818
2023-05-10T09:08:15.505Z,2.3810
2023-05-10T09:11:34.134Z,2.2157
2023-05-10T09:15:28.050Z,1.7705
2023-05-10T09:15:28.050Z,2.1920
2023-05-10T09:16:56.696Z,2.4566
2023-05-10T09:17:16.420Z,2.6865
2023-05-10T09:19:27.789Z,2.5042
2023-05-10T09:20:24.148Z,2.5009
2023-05-10T09:23:51.891Z,2.2859
2023-05-10T09:23:51.891Z,2.4623
2023-05-10T09:26:07.268Z,2.1699
2023-05-10T09:29:12.494Z,2.1957
2023-05-10T09:29:12.494Z,2.4015
2023-05-10T09:33:05.495Z,2.3307
2023-05-10T09:33:05.495Z,2.0636
2023-05-10T09:33:05.495Z,2.1413
2023-05-10T09:34:05.697Z,2.2535
2023-05-10T09:35:07.270Z,2.4952
2023-05-10T09:36:08.224Z,2.4683
2023-05-10T09:37:09.671Z,2.0117
2023-05-10T09:38:10.886Z,2.3329
2023-05-10T09:44:56.918Z,2.3557
2023-05-10T09:44:56.918Z,2.0991
2023-05-10T09:44:56.918Z,2.1241
2023-05-10T09:46:04.206Z,2.0763
2023-05-10T09:49:21.156Z,2.1667
2023-05-10T09:49:21.156Z,2.3439
2023-05-10T09:51:47.164Z,2.2964
2023-05-10T09:56:57.421Z,2.3928
2023-05-10T09:58:10.342Z,2.0477
2023-05-10T09:59:12.307Z,2.1630
2023-05-10T10:03:24.983Z,2.4013
2023-05-10T10:03:24.983Z,2.0422
2023-05-10T10:06:18.916Z,1.9929
2023-05-10T10:07:09.099Z,1.9629
2023-05-10T10:08:25.218Z,1.8503
2023-05-10T10:09:19.621Z,2.1255
2023-05-10T10:10:17.921Z,1.8447
2023-05-10T10:11:15.145Z,2.1500
2023-05-10T10:12:26.624Z,2.3802
2023-05-10T10:15:47.272Z,1.9655
2023-05-10T10:15:47.272Z,2.0402
2023-05-10T10:15:47.272Z,1.8411
2023-05-10T10:16:59.905Z,1.9547
2023-05-10T10:17:48.630Z,1.8144
2023-05-10T10:18:49.639Z,2.1667
2023-05-10T10:20:12.894Z,1.9302
2023-05-10T10:20:54.390Z,2.0863
2023-05-10T10:21:55.408Z,1.8819
2023-05-10T10:23:57.954Z,1.9328
2023-05-10T10:24:58.947Z,1.7828
2023-05-10T10:25:59.859Z,1.9894
2023-05-10T10:27:00.817Z,2.2499
2023-05-10T10:28:01.837Z,2.1588
2023-05-10T10:29:02.997Z,1.8691
2023-05-10T10:30:04.128Z,1.8620
2023-05-10T10:31:05.101Z,2.0114
2023-05-10T10:32:06.063Z,2.1436
2023-05-10T10:33:16.616Z,2.2125
2023-05-10T10:34:07.524Z,2.0888
2023-05-10T10:35:09.550Z,1.9063
2023-05-10T10:36:10.650Z,2.0008
2023-05-10T10:37:11.668Z,1.6074
2023-05-10T10:38:12.671Z,2.2180
2023-05-10T10:39:13.813Z,2.2531
2023-05-10T10:40:15.224Z,2.0791
2023-05-10T10:41:20.011Z,1.8913
2023-05-10T10:42:17.939Z,2.3476
2023-05-10T10:43:18.963Z,1.8794
2023-05-10T10:45:21.742Z,2.0619
2023-05-10T10:46:22.831Z,1.9576
2023-05-10T10:47:23.953Z,1.9475
2023-05-10T10:48:25.021Z,1.9955
2023-05-10T10:49:26.068Z,1.9875
2023-05-10T10:50:36.643Z,2.1387
2023-05-10T10:51:35.676Z,2.0799
2023-05-10T10:52:38.247Z,1.6826
2023-05-10T10:53:40.776Z,1.5737
2023-05-10T10:54:42.759Z,1.7941
2023-05-10T10:55:46.795Z,1.6728
2023-05-10T10:56:45.269Z,1.6523
2023-05-10T10:57:39.875Z,1.7741
2023-05-10T10:58:40.892Z,1.9525
2023-05-10T10:59:42.024Z,1.9264
2023-05-10T11:00:43.104Z,1.9370
2023-05-10T11:01:44.520Z,1.8971
2023-05-10T11:02:45.653Z,1.6494
2023-05-10T11:03:54.993Z,1.4972
2023-05-10T11:04:49.770Z,1.6635
2023-05-10T11:05:50.947Z,1.8607
2023-05-10T11:06:52.013Z,2.0089
2023-05-10T11:07:53.138Z,1.8163
2023-05-10T11:08:54.266Z,2.0614
2023-05-10T11:10:03.460Z,1.9361
2023-05-10T11:10:58.025Z,1.6595
2023-05-10T11:11:59.126Z,1.7816
2023-05-10T11:13:07.450Z,1.7229
2023-05-10T11:14:02.139Z,1.6816
2023-05-10T11:15:03.149Z,1.6167
2023-05-10T11:16:04.364Z,1.9748
2023-05-10T11:17:06.537Z,1.6287
2023-05-10T11:18:15.984Z,2.0886
2023-05-10T11:19:10.804Z,1.6731
2023-05-10T11:20:20.968Z,1.8923
2023-05-10T11:21:23.489Z,1.8658
2023-05-10T11:22:25.952Z,1.9113
2023-05-10T11:23:29.026Z,1.6810
2023-05-10T11:24:31.512Z,1.6977
2023-05-10T11:25:34.015Z,1.8972
2023-05-10T11:26:36.677Z,1.6770
2023-05-10T11:27:39.047Z,2.0033
2023-05-10T11:28:31.433Z,1.9446
2023-05-10T11:29:33.452Z,2.7320
2023-05-10T11:30:42.100Z,2.4030
2023-05-10T11:31:44.623Z,1.7337
2023-05-10T11:32:36.913Z,1.8967
2023-05-10T11:33:46.585Z,1.7978
2023-05-10T11:34:39.084Z,2.0359
2023-05-10T11:35:49.511Z,1.7456
2023-05-10T11:36:50.067Z,2.0498
2023-05-10T11:37:49.810Z,1.8727
2023-05-10T11:38:44.487Z,1.9301
2023-05-10T11:39:45.488Z,1.7728
2023-05-10T11:40:55.607Z,1.7190
2023-05-10T11:42:21.138Z,2.1614
2023-05-10T11:42:49.728Z,1.6530
2023-05-10T11:43:50.858Z,1.4194
2023-05-10T11:44:52.090Z,1.5401
2023-05-10T11:45:53.092Z,1.7203
2023-05-10T11:47:03.620Z,1.7038
2023-05-10T11:48:03.815Z,1.8326
2023-05-10T11:49:04.176Z,1.3518
2023-05-10T11:50:06.757Z,1.4500
2023-05-10T11:51:09.245Z,1.4270
2023-05-10T11:52:03.907Z,1.9247
2023-05-10T11:53:04.923Z,2.0736
2023-05-10T11:54:06.016Z,2.0162
2023-05-10T11:55:07.066Z,1.6431
2023-05-10T11:56:08.152Z,1.6106
2023-05-10T11:57:18.727Z,1.8355
2023-05-10T11:58:17.793Z,1.4794
2023-05-10T11:59:12.628Z,1.4700
2023-05-10T12:00:14.450Z,1.4784
2023-05-10T12:01:15.413Z,1.2543
2023-05-10T12:02:26.730Z,1.3191
2023-05-10T12:03:19.313Z,1.3170
2023-05-10T12:04:21.569Z,1.4565
2023-05-10T12:05:22.712Z,1.9915
2023-05-10T12:06:24.912Z,1.3033
2023-05-10T12:07:35.320Z,1.4476
2023-05-10T12:08:26.706Z,1.5685
2023-05-10T12:09:42.573Z,1.6549
2023-05-10T12:10:28.400Z,1.8373
2023-05-10T12:11:29.736Z,1.3651
2023-05-10T12:12:30.918Z,1.1713
2023-05-10T12:13:31.993Z,1.1646
2023-05-10T12:14:33.095Z,1.5070
2023-05-10T12:15:34.155Z,1.6098
2023-05-10T12:16:35.285Z,1.6038
2023-05-10T12:17:36.366Z,1.3079
2023-05-10T12:18:37.422Z,1.7744
2023-05-10T12:19:38.469Z,1.4577
2023-05-10T12:20:39.508Z,2.0324
2023-05-10T12:21:40.596Z,2.1033
2023-05-10T12:22:41.756Z,1.3551
2023-05-10T12:23:42.828Z,1.7199
2023-05-10T12:24:43.958Z,1.8042
2023-05-10T12:25:44.981Z,1.7177
2023-05-10T12:26:46.115Z,1.5753
2023-05-10T12:27:47.137Z,1.5704
2023-05-10T12:28:48.169Z,1.6566
2023-05-10T12:29:49.302Z,2.2735
2023-05-10T12:30:50.331Z,2.1183
2023-05-10T12:31:51.424Z,2.2335
2023-05-10T12:32:52.538Z,2.3878
2023-05-10T12:33:53.540Z,2.3434
2023-05-10T12:34:54.534Z,1.9356
2023-05-10T12:35:55.588Z,2.0786
2023-05-10T12:36:56.679Z,1.7734
2023-05-10T12:37:57.721Z,2.1681
2023-05-10T12:38:58.802Z,2.3451
2023-05-10T12:39:59.888Z,1.5091
2023-05-10T12:41:01.022Z,1.5938
2023-05-10T12:42:04.046Z,1.5030
2023-05-10T12:43:05.212Z,1.6623
2023-05-10T12:44:06.245Z,2.1183
2023-05-10T12:45:07.258Z,2.0301
2023-05-10T12:46:08.377Z,1.9716
2023-05-10T12:47:09.478Z,2.3041
2023-05-10T12:48:10.550Z,4.0520
2023-05-10T12:49:11.567Z,6.8702
2023-05-10T12:50:12.655Z,3.5713
2023-05-10T12:51:13.768Z,2.5309
2023-05-10T12:52:24.245Z,1.8138
2023-05-10T12:53:18.967Z,2.6643
2023-05-10T12:54:20.292Z,2.2999
2023-05-10T12:55:21.449Z,2.6849
2023-05-10T12:56:22.533Z,2.0105
2023-05-10T12:57:23.593Z,2.4440
2023-05-10T12:58:34.922Z,2.2224
2023-05-10T12:59:25.139Z,2.8714
2023-05-10T13:00:26.073Z,2.9471
2023-05-10T13:01:27.218Z,2.2738
2023-05-10T13:02:28.262Z,2.4741
2023-05-10T13:03:29.496Z,2.8297
2023-05-10T13:04:30.677Z,2.5341
2023-05-10T13:05:31.801Z,1.8129
2023-05-10T13:06:32.880Z,1.8563
2023-05-10T13:07:34.048Z,2.6493
2023-05-10T13:08:35.062Z,2.5607
2023-05-10T13:09:36.127Z,2.6154
2023-05-10T13:10:37.217Z,1.9905
2023-05-10T13:11:38.426Z,2.1517
2023-05-10T13:12:39.602Z,1.7726
2023-05-10T13:13:40.770Z,1.8982
2023-05-10T13:14:41.760Z,2.3470
2023-05-10T13:15:42.900Z,1.9135
2023-05-10T13:16:43.886Z,1.8555
2023-05-10T13:17:44.936Z,2.9220
2023-05-10T13:18:45.983Z,3.3381
2023-05-10T13:19:47.045Z,3.5682
2023-05-10T13:20:48.236Z,2.0125
2023-05-10T13:21:49.295Z,2.1335
2023-05-10T13:22:51.144Z,1.8453
2023-05-10T13:23:53.121Z,1.6457
2023-05-10T13:25:56.940Z,1.6955
2023-05-10T13:26:58.194Z,1.7963
2023-05-10T13:27:59.331Z,1.8035
2023-05-10T13:29:00.675Z,1.8004
2023-05-10T13:30:01.965Z,1.8549
2023-05-10T13:31:03.053Z,1.9636
2023-05-10T13:32:04.266Z,1.7375
2023-05-10T13:34:07.373Z,1.9365
2023-05-10T13:35:08.859Z,1.8565
2023-05-10T13:36:09.957Z,1.6909
2023-05-10T13:37:10.997Z,13.0375
2023-05-10T13:38:11.975Z,18.4829
2023-05-10T13:39:13.351Z,12.1347
2023-05-10T13:40:16.558Z,6.6758
2023-05-10T13:41:17.848Z,6.8431
2023-05-10T13:42:19.474Z,6.6816
2023-05-10T13:43:22.045Z,8.6182